Time;durP1;ratioP1;P1;durP2;ratioP2;P2;SDS_P1;SDS_P2;PMS_P1;PMS_P2;Temp;Humidity;BMP_temperature;BMP_pressure;BME280_temperature;BME280_humidity;BME280_pressure;Samples;Min_cycle;Max_cycle;Signal;HPM_P1;HPM_P2
2022/07/01 00:08:28;;;;;;;5.47;0.95;;;15.80;99.90;;;;;;4938855;28;20098;-87
2022/07/01 00:11:41;;;;;;;4.60;1.33;;;15.90;99.90;;;;;;4911620;29;20087;-88
2022/07/01 00:15:03;;;;;;;4.75;1.10;;;16.10;99.90;;;;;;4918101;29;20064;-88
2022/07/01 00:18:44;;;;;;;3.97;0.80;;;15.90;99.90;;;;;;4866575;29;20071;-88
2022/07/01 00:27:13;;;;;;;;;;;;;;;;;;;;;
2022/07/01 00:30:35;;;;;;;4.45;0.88;;;15.80;99.90;;;;;;4914810;29;20067;-88
2022/07/01 00:34:01;;;;;;;5.20;1.23;;;15.80;99.90;;;;;;4921068;29;20525;-88
2022/07/01 00:40:45;;;;;;;5.70;0.90;;;15.80;99.90;;;;;;4923974;28;20105;-88
2022/07/01 00:44:20;;;;;;;3.58;0.90;;;15.90;99.90;;;;;;4916149;29;20055;-87
2022/07/01 00:47:19;;;;;;;2.67;1.05;;;16.00;99.90;;;;;;4916880;29;20055;-88
2022/07/01 00:49:58;;;;;;;;;;;;;;;;;;;;;
2022/07/01 00:52:44;;;;;;;5.10;0.90;;;15.70;99.90;;;;;;4918586;29;20139;-89
2022/07/01 00:55:35;;;;;;;2.50;0.82;;;15.80;99.90;;;;;;4916309;29;20079;-88
2022/07/01 00:58:18;;;;;;;5.35;1.10;;;15.80;99.90;;;;;;4912789;29;20055;-86
2022/07/01 01:01:06;;;;;;;3.47;0.90;;;15.80;99.90;;;;;;5065260;23;20669;-88
2022/07/01 01:06:34;;;;;;;2.10;0.60;;;15.90;99.90;;;;;;4927520;29;20453;-87
2022/07/01 01:09:03;;;;;;;3.35;0.60;;;15.90;99.90;;;;;;4928924;29;20056;-87
2022/07/01 01:12:05;;;;;;;3.80;0.90;;;15.90;99.90;;;;;;4926682;29;20047;-87
2022/07/01 01:15:39;;;;;;;2.13;0.57;;;15.90;99.90;;;;;;4917702;29;20066;-87
2022/07/01 01:18:43;;;;;;;3.05;0.70;;;15.80;99.90;;;;;;4884065;29;20062;-86
2022/07/01 01:21:23;;;;;;;3.85;0.90;;;15.60;99.90;;;;;;4866127;29;20815;-89
2022/07/01 01:29:55;;;;;;;2.10;0.60;;;15.80;99.90;;;;;;4910313;29;20047;-87
2022/07/01 01:33:17;;;;;;;;;;;;;;;;;;;;;
2022/07/01 01:36:50;;;;;;;1.88;0.65;;;15.80;99.90;;;;;;4927417;29;21029;-86
2022/07/01 01:39:22;;;;;;;1.85;0.57;;;15.90;99.90;;;;;;4901306;29;20063;-88
2022/07/01 01:41:55;;;;;;;1.35;0.50;;;15.70;99.90;;;;;;4963481;23;20102;-87
2022/07/01 01:44:54;;;;;;;4.23;0.67;;;15.70;99.90;;;;;;4940702;28;20564;-86
2022/07/01 01:47:31;;;;;;;4.18;0.70;;;15.30;99.90;;;;;;4941336;29;20716;-86
2022/07/01 01:50:28;;;;;;;1.50;0.60;;;15.60;99.90;;;;;;4941214;29;20753;-87
2022/07/01 01:52:57;;;;;;;1.33;0.60;;;16.20;99.90;;;;;;4940052;29;20448;-86
2022/07/01 01:59:14;;;;;;;3.47;0.60;;;15.90;99.90;;;;;;4926870;28;20054;-86
2022/07/01 02:06:01;;;;;;;;;;;;;;;;;;;;;
2022/07/01 02:09:28;;;;;;;;;;;;;;;;;;;;;
2022/07/01 02:12:02;;;;;;;1.95;0.80;;;15.90;99.90;;;;;;4918848;29;20058;-86
2022/07/01 02:14:36;;;;;;;3.05;0.88;;;15.60;99.90;;;;;;4937039;28;20207;-86
2022/07/01 02:17:13;;;;;;;3.97;1.27;;;16.00;99.90;;;;;;4937460;28;20550;-86
2022/07/01 02:20:18;;;;;;;2.22;1.20;;;15.60;99.90;;;;;;4939539;28;20046;-86
2022/07/01 02:26:22;;;;;;;3.08;1.20;;;15.00;99.90;;;;;;4938312;28;20142;-86
2022/07/01 02:28:49;;;;;;;3.88;1.45;;;15.60;99.90;;;;;;4952270;28;20578;-86
2022/07/01 02:34:57;;;;;;;3.95;1.20;;;15.40;99.90;;;;;;4880066;29;20064;-85
2022/07/01 02:37:48;;;;;;;2.72;1.08;;;15.50;99.90;;;;;;4928866;28;20062;-86
2022/07/01 02:47:00;;;;;;;2.63;1.07;;;15.50;99.90;;;;;;4940432;28;20961;-86
2022/07/01 02:49:46;;;;;;;3.63;1.17;;;15.10;99.90;;;;;;4921286;29;20294;-86
2022/07/01 02:52:54;;;;;;;3.20;1.38;;;15.50;99.90;;;;;;4930387;28;20134;-85
2022/07/01 02:55:56;;;;;;;;;;;;;;;;;;;;;
2022/07/01 02:58:23;;;;;;;2.60;1.00;;;15.90;99.90;;;;;;4907439;29;20677;-86
2022/07/01 03:00:57;;;;;;;4.18;1.27;;;15.30;99.90;;;;;;4862391;29;20108;-86
2022/07/01 03:04:03;;;;;;;6.03;1.55;;;15.40;99.90;;;;;;4841761;29;20065;-86
2022/07/01 03:10:01;;;;;;;6.88;1.70;;;15.30;99.90;;;;;;4880637;27;20078;-86
2022/07/01 03:16:05;;;;;;;3.92;1.35;;;15.30;99.90;;;;;;4865629;29;20107;-86
2022/07/01 03:19:13;;;;;;;4.10;1.38;;;15.60;99.90;;;;;;4890212;29;20045;-85
2022/07/01 03:25:32;;;;;;;4.45;1.88;;;15.70;99.90;;;;;;4803423;29;20054;-85
2022/07/01 03:31:36;;;;;;;4.30;1.67;;;15.20;99.90;;;;;;4883877;29;20733;-85
2022/07/01 03:39:00;;;;;;;5.05;2.30;;;15.10;99.90;;;;;;4854787;29;20059;-86
2022/07/01 03:42:25;;;;;;;;;;;;;;;;;;;;;
2022/07/01 03:45:39;;;;;;;5.75;2.22;;;15.20;99.90;;;;;;4856943;29;20558;-85
2022/07/01 03:48:08;;;;;;;6.78;1.80;;;14.40;99.90;;;;;;4901070;29;20048;-85
2022/07/01 03:51:17;;;;;;;6.20;1.77;;;15.20;99.90;;;;;;4881479;29;20972;-85
2022/07/01 03:54:30;;;;;;;4.45;2.25;;;15.00;99.90;;;;;;4886799;29;20670;-85
2022/07/01 03:57:00;;;;;;;3.88;1.88;;;15.20;99.90;;;;;;4872435;29;20071;-84
2022/07/01 03:59:53;;;;;;;3.65;1.88;;;15.90;99.90;;;;;;4879512;29;20139;-84
2022/07/01 04:02:49;;;;;;;4.68;2.08;;;15.20;99.90;;;;;;4867163;29;20064;-84
2022/07/01 04:05:15;;;;;;;4.88;2.40;;;15.30;99.90;;;;;;4886137;29;20060;-84
2022/07/01 04:08:14;;;;;;;4.20;1.98;;;15.30;99.90;;;;;;4868875;29;20044;-84
2022/07/01 04:10:50;;;;;;;5.15;2.40;;;15.20;99.90;;;;;;4884606;29;20048;-84
2022/07/01 04:13:15;;;;;;;4.50;2.33;;;15.00;99.90;;;;;;4866824;29;20320;-84
2022/07/01 04:15:46;;;;;;;5.47;2.30;;;15.30;99.90;;;;;;4884654;29;20655;-84
2022/07/01 04:18:14;;;;;;;5.85;2.83;;;15.30;99.90;;;;;;4882095;29;20056;-84
2022/07/01 04:23:39;;;;;;;6.10;3.35;;;15.40;99.90;;;;;;4883971;29;20051;-84
2022/07/01 04:26:05;;;;;;;8.82;4.40;;;15.70;99.90;;;;;;4884026;29;20520;-83
2022/07/01 04:28:31;;;;;;;7.38;5.13;;;15.80;99.90;;;;;;4868170;29;20528;-84
2022/07/01 04:30:59;;;;;;;8.70;5.97;;;14.70;99.90;;;;;;4886606;29;20052;-84
2022/07/01 04:33:25;;;;;;;9.80;5.68;;;15.30;99.90;;;;;;4885347;29;20147;-83
2022/07/01 04:35:51;;;;;;;12.00;6.63;;;15.20;99.90;;;;;;4865902;29;20523;-84
2022/07/01 04:38:17;;;;;;;10.55;6.35;;;15.20;99.90;;;;;;4869529;29;20045;-83
2022/07/01 04:41:58;;;;;;;10.07;6.78;;;15.30;99.90;;;;;;4884726;29;20084;-84
2022/07/01 04:43:29;;;;;;;11.40;6.90;;;15.30;99.90;;;;;;4879491;29;20063;-83
2022/07/01 04:45:55;;;;;;;10.05;7.38;;;15.30;99.90;;;;;;4867769;29;20053;-83
2022/07/01 04:48:21;;;;;;;13.93;8.70;;;16.00;99.90;;;;;;4885669;29;20063;-83
2022/07/01 04:50:47;;;;;;;12.18;8.40;;;15.40;99.90;;;;;;4865145;29;20140;-84
2022/07/01 04:53:25;;;;;;;10.18;7.60;;;15.40;99.90;;;;;;4880897;29;20092;-83
2022/07/01 04:55:51;;;;;;;13.10;8.90;;;15.40;99.90;;;;;;4865088;29;20052;-83
2022/07/01 04:58:16;;;;;;;14.68;9.70;;;15.40;99.90;;;;;;4867906;29;20067;-83
2022/07/01 05:00:42;;;;;;;14.60;9.43;;;15.80;99.90;;;;;;4867270;29;20139;-82
2022/07/01 05:03:08;;;;;;;17.02;10.48;;;15.60;99.90;;;;;;4872086;29;20425;-85
2022/07/01 05:05:37;;;;;;;16.45;10.68;;;15.40;99.90;;;;;;4872672;29;20049;-87
2022/07/01 05:08:02;;;;;;;17.90;11.57;;;15.40;99.90;;;;;;4884294;29;21305;-79
2022/07/01 05:10:28;;;;;;;17.63;13.00;;;15.40;99.90;;;;;;4884503;29;20159;-89
2022/07/01 05:12:54;;;;;;;21.10;11.82;;;15.40;99.90;;;;;;4885218;29;20045;-90
2022/07/01 05:15:20;;;;;;;21.73;13.75;;;15.40;99.90;;;;;;4885800;29;20091;-86
2022/07/01 05:23:14;;;;;;;21.42;14.63;;;15.70;99.90;;;;;;4864808;29;20052;-84
2022/07/01 05:25:40;;;;;;;24.40;15.50;;;15.80;99.90;;;;;;4884391;29;20487;-80
2022/07/01 05:28:05;;;;;;;20.73;13.73;;;15.50;99.90;;;;;;4890012;29;20186;-82
2022/07/01 05:30:31;;;;;;;22.00;15.80;;;15.80;99.90;;;;;;4900596;29;20040;-81
2022/07/01 05:32:56;;;;;;;22.60;15.45;;;15.50;99.90;;;;;;4886130;29;20048;-82
2022/07/01 05:35:22;;;;;;;26.38;17.13;;;15.50;99.90;;;;;;4865971;29;20060;-81
2022/07/01 05:37:48;;;;;;;22.45;14.85;;;15.60;99.90;;;;;;4867186;29;20047;-81
2022/07/01 05:40:13;;;;;;;24.38;17.38;;;15.60;99.90;;;;;;4876695;29;20044;-81
2022/07/01 05:42:39;;;;;;;25.88;17.35;;;15.60;99.90;;;;;;4870929;29;20045;-80
2022/07/01 05:45:05;;;;;;;23.92;17.23;;;15.80;99.90;;;;;;4866943;29;20108;-81
2022/07/01 05:47:30;;;;;;;26.13;18.10;;;15.70;99.90;;;;;;4883317;29;20052;-80
2022/07/01 05:49:56;;;;;;;24.25;18.38;;;15.70;99.90;;;;;;4882727;29;20071;-81
2022/07/01 05:52:21;;;;;;;25.98;18.25;;;15.70;99.90;;;;;;4867380;29;20056;-81
2022/07/01 05:54:47;;;;;;;29.92;20.42;;;15.80;99.90;;;;;;4884237;29;20822;-82
2022/07/01 05:57:13;;;;;;;25.35;18.90;;;15.90;99.90;;;;;;4861842;29;20053;-84
2022/07/01 05:59:38;;;;;;;27.65;19.45;;;15.90;99.90;;;;;;4866199;29;20059;-83
2022/07/01 06:02:04;;;;;;;26.88;19.20;;;16.00;99.90;;;;;;4865451;29;20048;-82
2022/07/01 06:04:29;;;;;;;27.08;20.45;;;16.10;99.90;;;;;;4866830;29;20171;-84
2022/07/01 06:06:55;;;;;;;25.20;19.00;;;16.00;99.90;;;;;;4883995;29;20072;-80
2022/07/01 06:09:24;;;;;;;27.23;19.98;;;16.00;99.90;;;;;;4880994;29;20527;-80
2022/07/01 06:11:50;;;;;;;26.33;19.98;;;16.10;99.90;;;;;;4867952;29;20127;-78
2022/07/01 06:14:15;;;;;;;26.17;19.55;;;16.10;99.90;;;;;;4884327;29;20056;-80
2022/07/01 06:16:41;;;;;;;30.77;20.80;;;16.20;99.90;;;;;;4884644;29;20079;-82
2022/07/01 06:19:07;;;;;;;29.23;19.80;;;16.20;99.90;;;;;;4882294;29;20040;-85
2022/07/01 06:21:33;;;;;;;27.67;20.30;;;16.40;99.90;;;;;;4876273;29;20696;-86
2022/07/01 06:23:58;;;;;;;28.35;20.67;;;16.40;99.90;;;;;;4883118;29;20048;-83
2022/07/01 06:26:24;;;;;;;28.30;20.48;;;16.80;99.90;;;;;;4893097;29;20041;-81
2022/07/01 06:28:49;;;;;;;28.75;20.23;;;16.40;99.90;;;;;;4882475;29;20195;-81
2022/07/01 06:31:15;;;;;;;29.13;20.85;;;17.00;99.90;;;;;;4865823;29;20083;-80
2022/07/01 06:33:41;;;;;;;26.98;20.25;;;16.90;99.90;;;;;;4866019;29;20059;-81
2022/07/01 06:36:06;;;;;;;29.23;20.77;;;16.80;99.90;;;;;;4866342;29;20060;-81
2022/07/01 06:38:32;;;;;;;27.88;20.23;;;16.30;99.90;;;;;;4883020;29;20087;-83
2022/07/01 06:43:43;;;;;;;;;;;16.40;99.90;;;;;;4879873;29;20060;-83
2022/07/01 06:46:09;;;;;;;28.80;20.52;;;16.40;99.90;;;;;;4865162;29;19928;-84
2022/07/01 06:48:35;;;;;;;27.98;20.80;;;16.50;99.90;;;;;;4883490;29;20048;-84
2022/07/01 06:51:02;;;;;;;27.60;20.80;;;16.50;99.90;;;;;;4884276;29;20052;-83
2022/07/01 06:53:27;;;;;;;28.92;21.20;;;16.60;99.90;;;;;;4883316;29;20057;-83
2022/07/01 06:55:53;;;;;;;25.90;18.23;;;16.70;99.90;;;;;;4876021;29;20127;-83
2022/07/01 06:58:19;;;;;;;30.63;21.13;;;16.70;99.90;;;;;;4875191;29;20175;-83
2022/07/01 07:00:44;;;;;;;26.02;19.73;;;16.70;99.90;;;;;;4883855;29;20072;-82
2022/07/01 07:03:10;;;;;;;27.70;19.35;;;16.70;99.90;;;;;;4865885;29;20049;-82
2022/07/01 07:05:35;;;;;;;27.83;20.83;;;16.70;99.90;;;;;;4884555;29;20164;-82
2022/07/01 07:08:02;;;;;;;25.17;19.77;;;16.70;99.90;;;;;;4865816;29;20055;-82
2022/07/01 07:10:27;;;;;;;30.80;20.75;;;16.60;99.90;;;;;;4886573;29;20848;-81
2022/07/01 07:12:53;;;;;;;24.90;19.60;;;16.70;99.90;;;;;;4867551;29;20088;-79
2022/07/01 07:15:19;;;;;;;25.35;19.70;;;16.60;99.90;;;;;;4884219;29;20064;-79
2022/07/01 07:17:44;;;;;;;27.27;19.83;;;16.60;99.90;;;;;;4884045;29;20053;-79
2022/07/01 07:20:10;;;;;;;25.23;19.98;;;16.80;99.90;;;;;;4868104;29;20063;-79
2022/07/01 07:22:36;;;;;;;24.90;19.98;;;16.60;99.90;;;;;;4870120;29;20064;-79
2022/07/01 07:25:02;;;;;;;23.35;19.52;;;16.60;99.90;;;;;;4866703;29;20044;-76
2022/07/01 07:27:28;;;;;;;23.63;19.45;;;16.60;99.90;;;;;;4887477;29;20055;-76
2022/07/01 07:29:54;;;;;;;29.65;20.50;;;16.50;99.90;;;;;;4858085;29;20804;-75
2022/07/01 07:32:19;;;;;;;26.55;19.60;;;16.60;99.90;;;;;;4881999;29;20052;-75
2022/07/01 07:34:45;;;;;;;27.90;20.15;;;16.70;99.90;;;;;;4886754;29;20045;-75
2022/07/01 07:37:11;;;;;;;23.52;19.23;;;16.70;99.90;;;;;;4886913;29;20895;-75
2022/07/01 07:39:36;;;;;;;23.85;19.13;;;16.70;99.90;;;;;;4870854;29;20048;-76
2022/07/01 07:42:03;;;;;;;21.48;18.52;;;16.70;99.90;;;;;;4869857;29;20087;-75
2022/07/01 07:44:28;;;;;;;24.05;19.80;;;16.70;99.90;;;;;;4886857;29;20060;-75
2022/07/01 07:46:54;;;;;;;26.08;19.08;;;16.70;99.90;;;;;;4870492;29;20083;-75
2022/07/01 07:49:20;;;;;;;23.83;19.10;;;16.80;99.90;;;;;;4885834;29;20501;-75
2022/07/01 07:51:47;;;;;;;24.58;18.52;;;16.70;99.90;;;;;;4887205;29;20084;-75
2022/07/01 07:54:12;;;;;;;22.58;19.50;;;16.70;99.90;;;;;;4874845;29;20135;-75
2022/07/01 07:56:38;;;;;;;26.00;18.92;;;16.70;99.90;;;;;;4888446;29;20067;-75
2022/07/01 07:59:04;;;;;;;26.83;19.02;;;16.80;99.90;;;;;;4871954;29;20053;-75
2022/07/01 08:01:29;;;;;;;25.33;18.52;;;16.90;99.90;;;;;;4887477;29;20807;-75
2022/07/01 08:03:55;;;;;;;26.13;19.58;;;16.80;99.90;;;;;;4885524;29;20769;-75
2022/07/01 08:06:21;;;;;;;24.58;18.30;;;16.90;99.90;;;;;;4869902;29;20055;-76
2022/07/01 08:08:46;;;;;;;22.38;18.27;;;17.10;99.90;;;;;;4890675;29;20072;-75
2022/07/01 08:11:12;;;;;;;21.80;18.40;;;17.10;99.90;;;;;;4893174;29;20056;-75
2022/07/01 08:13:38;;;;;;;22.00;16.48;;;17.10;99.90;;;;;;4887196;29;20556;-75
2022/07/01 08:16:04;;;;;;;21.98;16.63;;;17.30;99.90;;;;;;4886230;29;20056;-75
2022/07/01 08:18:30;;;;;;;22.05;17.67;;;17.10;99.90;;;;;;4886389;29;20044;-75
2022/07/01 08:20:56;;;;;;;21.48;17.08;;;17.10;99.90;;;;;;4886491;29;20048;-75
2022/07/01 08:23:22;;;;;;;21.13;15.20;;;17.20;99.90;;;;;;4870642;29;20045;-75
2022/07/01 08:25:49;;;;;;;20.25;15.80;;;17.20;99.90;;;;;;4905232;29;20055;-75
2022/07/01 08:28:14;;;;;;;22.33;16.52;;;17.30;99.90;;;;;;4905724;29;20048;-75
2022/07/01 08:30:40;;;;;;;21.30;14.40;;;17.50;99.90;;;;;;4875852;29;20052;-75
2022/07/01 08:33:06;;;;;;;18.55;14.65;;;17.60;99.90;;;;;;4885169;29;20773;-75
2022/07/01 08:35:32;;;;;;;19.52;14.82;;;17.50;99.90;;;;;;4869594;29;20053;-75
2022/07/01 08:37:58;;;;;;;20.40;15.20;;;17.60;99.90;;;;;;4850524;29;20079;-75
2022/07/01 08:40:31;;;;;;;19.08;13.82;;;17.70;99.90;;;;;;4851090;29;20156;-75
2022/07/01 08:43:02;;;;;;;18.45;13.73;;;17.90;99.90;;;;;;4869162;29;20060;-74
2022/07/01 08:45:30;;;;;;;15.10;12.93;;;17.90;99.90;;;;;;4880357;29;20058;-74
2022/07/01 08:48:00;;;;;;;15.07;12.10;;;18.10;99.90;;;;;;4902581;29;20052;-74
2022/07/01 08:50:28;;;;;;;15.07;11.45;;;18.50;99.90;;;;;;4886264;29;20201;-74
2022/07/01 08:52:54;;;;;;;17.83;11.23;;;18.40;99.90;;;;;;4886111;29;20059;-75
2022/07/01 08:55:22;;;;;;;13.65;10.15;;;18.50;99.90;;;;;;4886338;29;20044;-74
2022/07/01 08:57:48;;;;;;;18.73;11.13;;;18.60;99.90;;;;;;4885504;29;20045;-74
2022/07/01 09:00:15;;;;;;;14.77;9.65;;;18.70;99.90;;;;;;4867204;29;20051;-74
2022/07/01 09:02:56;;;;;;;12.95;9.35;;;18.80;99.90;;;;;;4883326;29;20060;-75
2022/07/01 09:05:25;;;;;;;12.88;9.25;;;18.90;99.90;;;;;;4903459;29;20160;-74
2022/07/01 09:08:05;;;;;;;14.02;10.70;;;18.90;99.90;;;;;;4898599;29;20049;-74
2022/07/01 09:10:33;;;;;;;12.38;8.50;;;18.90;99.90;;;;;;4886382;29;20800;-74
2022/07/01 09:13:08;;;;;;;12.05;7.68;;;18.80;99.90;;;;;;4884505;29;20055;-74
2022/07/01 09:15:34;;;;;;;11.52;7.30;;;18.80;99.90;;;;;;4898148;29;20594;-74
2022/07/01 09:18:06;;;;;;;11.13;6.97;;;18.90;99.90;;;;;;4888864;29;20151;-74
2022/07/01 09:20:33;;;;;;;10.00;6.13;;;19.10;99.90;;;;;;4882810;29;20059;-74
2022/07/01 09:23:06;;;;;;;9.88;6.07;;;19.30;99.90;;;;;;4868511;29;20063;-75
2022/07/01 09:25:44;;;;;;;8.93;6.55;;;19.40;99.90;;;;;;4868552;29;20056;-74
2022/07/01 09:28:16;;;;;;;10.95;6.80;;;19.50;99.90;;;;;;4884843;29;20054;-75
2022/07/01 09:30:44;;;;;;;8.60;4.88;;;19.60;99.90;;;;;;4869378;29;20060;-75
2022/07/01 09:33:16;;;;;;;12.68;6.57;;;19.70;99.90;;;;;;4865419;29;20580;-74
2022/07/01 09:35:43;;;;;;;12.93;6.90;;;19.60;99.90;;;;;;4866334;29;20041;-74
2022/07/01 09:38:14;;;;;;;11.63;6.70;;;19.70;99.90;;;;;;4882568;29;20054;-74
2022/07/01 09:41:00;;;;;;;10.82;6.03;;;19.70;99.90;;;;;;4859356;29;20841;-74
2022/07/01 09:43:29;;;;;;;8.98;6.03;;;19.80;99.90;;;;;;4849464;29;20148;-74
2022/07/01 09:46:04;;;;;;;11.90;6.80;;;19.80;99.90;;;;;;4867876;29;20183;-74
2022/07/01 09:48:32;;;;;;;9.38;7.13;;;19.70;99.90;;;;;;4883025;29;20052;-74
2022/07/01 09:50:58;;;;;;;10.88;7.05;;;19.70;99.90;;;;;;4885222;29;20063;-74
2022/07/01 09:53:24;;;;;;;9.70;6.10;;;19.70;99.90;;;;;;4867339;29;20085;-74
2022/07/01 09:55:50;;;;;;;10.93;6.43;;;19.70;99.90;;;;;;4867346;29;20203;-75
2022/07/01 09:58:16;;;;;;;12.43;5.90;;;19.80;99.90;;;;;;4885428;29;20617;-74
2022/07/01 10:00:42;;;;;;;12.10;5.55;;;19.90;99.90;;;;;;4903950;29;20052;-76
2022/07/01 10:03:09;;;;;;;9.68;4.60;;;20.10;99.90;;;;;;4872707;29;20685;-75
2022/07/01 10:06:16;;;;;;;11.82;4.55;;;20.10;99.90;;;;;;4885161;29;20134;-75
2022/07/01 10:09:07;;;;;;;9.82;5.68;;;20.20;99.90;;;;;;4861277;29;20479;-75
2022/07/01 10:12:18;;;;;;;9.93;5.32;;;20.20;99.90;;;;;;4882467;29;20056;-75
2022/07/01 10:14:44;;;;;;;8.85;4.47;;;20.30;99.90;;;;;;4859559;29;20072;-75
2022/07/01 10:17:25;;;;;;;11.57;5.07;;;20.30;99.90;;;;;;4869331;29;20079;-75
2022/07/01 10:19:55;;;;;;;11.13;5.57;;;20.40;99.90;;;;;;4888892;29;20064;-74
2022/07/01 10:22:56;;;;;;;11.27;5.10;;;20.30;99.90;;;;;;4884652;29;20092;-79
2022/07/01 10:25:39;;;;;;;12.02;6.05;;;20.40;99.90;;;;;;4883479;29;20060;-78
2022/07/01 10:28:15;;;;;;;10.27;5.18;;;20.50;99.90;;;;;;4852237;29;20144;-79
2022/07/01 10:31:01;;;;;;;8.25;4.15;;;20.70;99.90;;;;;;4852591;29;20492;-79
2022/07/01 10:33:38;;;;;;;6.85;3.70;;;20.60;99.90;;;;;;4867401;29;20733;-79
2022/07/01 10:36:16;;;;;;;10.88;4.95;;;20.50;99.90;;;;;;4867704;29;20064;-81
2022/07/01 10:39:06;;;;;;;8.73;4.80;;;20.50;99.90;;;;;;4867018;29;20129;-78
2022/07/01 10:41:41;;;;;;;9.43;5.05;;;20.50;99.90;;;;;;4883592;29;20099;-78
2022/07/01 10:44:12;;;;;;;9.95;5.65;;;20.30;99.90;;;;;;4883931;29;20056;-79
2022/07/01 10:46:46;;;;;;;11.48;5.63;;;20.10;99.90;;;;;;4857689;29;20048;-79
2022/07/01 10:49:15;;;;;;;10.68;5.63;;;20.20;99.90;;;;;;4870942;29;20091;-78
2022/07/01 10:51:57;;;;;;;10.95;5.93;;;20.20;99.90;;;;;;4859562;29;20053;-78
2022/07/01 10:54:56;;;;;;;10.95;4.57;;;20.20;99.90;;;;;;4863956;29;20124;-79
2022/07/01 10:57:27;;;;;;;11.55;4.18;;;20.60;99.90;;;;;;4865079;29;20076;-79
2022/07/01 10:59:54;;;;;;;8.30;3.97;;;20.60;99.90;;;;;;4871933;29;20068;-78
2022/07/01 11:02:30;;;;;;;9.48;3.00;;;20.60;99.90;;;;;;4865637;29;20048;-78
2022/07/01 11:04:58;;;;;;;7.03;3.08;;;20.60;99.90;;;;;;4892006;29;20056;-79
2022/07/01 11:07:32;;;;;;;6.15;3.25;;;20.70;99.90;;;;;;4883653;29;20467;-79
2022/07/01 11:09:59;;;;;;;6.85;3.22;;;20.70;99.90;;;;;;4883789;29;20069;-78
2022/07/01 11:12:27;;;;;;;5.78;3.17;;;20.70;99.90;;;;;;4866893;29;20061;-79
2022/07/01 11:14:55;;;;;;;6.22;3.17;;;20.80;99.90;;;;;;4883681;29;20051;-79
2022/07/01 11:17:22;;;;;;;9.90;3.72;;;21.00;99.90;;;;;;4867113;29;20075;-79
2022/07/01 11:19:52;;;;;;;6.82;3.75;;;21.30;99.90;;;;;;4879294;29;20051;-79
2022/07/01 11:22:28;;;;;;;9.80;4.15;;;21.40;99.90;;;;;;4876469;29;20100;-79
2022/07/01 11:24:56;;;;;;;9.52;4.10;;;21.30;99.90;;;;;;4866736;29;20060;-79
2022/07/01 11:27:23;;;;;;;7.28;3.00;;;21.40;99.90;;;;;;4866174;29;20048;-79
2022/07/01 11:29:56;;;;;;;9.52;2.75;;;21.30;99.90;;;;;;4883198;29;20061;-79
2022/07/01 11:32:27;;;;;;;6.63;2.33;;;21.30;99.90;;;;;;4884504;29;20128;-78
2022/07/01 11:34:53;;;;;;;5.28;2.72;;;21.30;99.90;;;;;;4887302;29;20781;-79
2022/07/01 11:40:08;;;;;;;6.15;1.40;;;21.00;99.90;;;;;;4883745;29;20056;-79
2022/07/01 11:42:35;;;;;;;5.03;1.40;;;20.90;99.90;;;;;;4883256;29;20100;-79
2022/07/01 11:45:01;;;;;;;6.70;1.20;;;20.80;99.90;;;;;;4882404;29;20044;-79
2022/07/01 11:47:28;;;;;;;4.35;1.33;;;20.70;99.90;;;;;;4883296;29;20139;-79
2022/07/01 11:49:54;;;;;;;4.43;1.10;;;20.60;99.90;;;;;;4900818;29;20059;-78
2022/07/01 11:52:21;;;;;;;4.70;1.15;;;20.50;99.90;;;;;;4894297;29;20597;-79
2022/07/01 11:54:50;;;;;;;5.68;1.73;;;20.30;99.90;;;;;;4866448;29;20052;-78
2022/07/01 11:57:20;;;;;;;4.30;0.80;;;20.20;99.90;;;;;;4884214;29;20048;-78
2022/07/01 11:59:47;;;;;;;3.97;1.30;;;20.00;99.90;;;;;;4884204;29;20052;-78
2022/07/01 12:02:15;;;;;;;8.45;1.40;;;19.90;99.90;;;;;;4857132;29;20085;-78
2022/07/01 12:04:41;;;;;;;5.78;1.23;;;19.80;99.90;;;;;;4891420;29;20730;-78
2022/07/01 12:07:08;;;;;;;4.28;1.08;;;19.70;99.90;;;;;;4867249;29;20099;-78
2022/07/01 12:09:34;;;;;;;2.58;0.90;;;19.90;99.90;;;;;;4869147;29;20103;-78
2022/07/01 12:12:00;;;;;;;4.80;1.23;;;20.10;99.90;;;;;;4869536;29;20056;-78
2022/07/01 12:14:29;;;;;;;5.47;2.05;;;20.20;99.90;;;;;;4886361;29;20052;-78
2022/07/01 12:16:57;;;;;;;5.85;1.10;;;20.40;99.90;;;;;;4855059;29;20053;-78
2022/07/01 12:19:36;;;;;;;6.13;1.73;;;20.50;99.90;;;;;;4886727;29;20808;-78
2022/07/01 12:22:06;;;;;;;22.52;7.30;;;20.60;99.90;;;;;;4867876;29;20060;-78
2022/07/01 12:24:32;;;;;;;15.32;5.22;;;20.60;99.90;;;;;;4867788;29;20049;-78
2022/07/01 12:27:06;;;;;;;3.75;0.98;;;20.80;99.90;;;;;;4883432;29;20056;-82
2022/07/01 12:29:48;;;;;;;4.00;1.00;;;20.70;99.90;;;;;;4869320;29;20063;-79
2022/07/01 12:32:24;;;;;;;6.82;1.42;;;20.80;99.90;;;;;;4869445;29;20111;-80
2022/07/01 12:34:57;;;;;;;4.80;0.80;;;21.00;99.90;;;;;;4868092;29;20088;-80
2022/07/01 12:37:34;;;;;;;14.17;4.73;;;21.20;99.90;;;;;;4873800;29;20056;-80
2022/07/01 12:40:19;;;;;;;5.65;0.90;;;21.50;99.90;;;;;;4869480;29;20155;-80
2022/07/01 12:42:45;;;;;;;6.32;1.17;;;21.70;99.90;;;;;;4886257;29;20389;-80
2022/07/01 12:45:16;;;;;;;4.70;0.65;;;21.90;99.90;;;;;;4867922;29;20119;-80
2022/07/01 12:47:46;;;;;;;2.67;0.50;;;21.80;99.90;;;;;;4869262;29;20063;-80
2022/07/01 12:50:22;;;;;;;2.30;0.60;;;22.10;99.90;;;;;;4885630;29;20808;-80
2022/07/01 12:53:04;;;;;;;3.95;0.57;;;22.00;99.90;;;;;;4898980;29;20710;-80
2022/07/01 12:55:39;;;;;;;2.00;0.40;;;22.00;99.20;;;;;;4890332;29;20056;-81
2022/07/01 12:58:06;;;;;;;;;;;21.90;99.90;;;;;;4885312;29;20815;-79
2022/07/01 13:00:31;;;;;;;3.92;0.60;;;22.00;99.90;;;;;;4889569;29;19927;-81
2022/07/01 13:02:59;;;;;;;3.13;0.60;;;22.00;99.70;;;;;;4868848;29;20060;-80
2022/07/01 13:05:26;;;;;;;3.92;0.50;;;22.00;99.70;;;;;;4884897;29;20060;-81
2022/07/01 13:07:51;;;;;;;2.00;0.60;;;21.90;99.40;;;;;;4867320;29;20048;-78
2022/07/01 13:10:19;;;;;;;3.65;0.50;;;21.90;99.90;;;;;;4882790;29;20060;-79
2022/07/01 13:12:45;;;;;;;2.97;0.55;;;21.80;99.50;;;;;;4883396;29;20925;-78
2022/07/01 13:15:14;;;;;;;2.78;0.50;;;22.00;99.10;;;;;;4866610;29;20058;-83
2022/07/01 13:17:40;;;;;;;6.18;0.60;;;21.90;98.90;;;;;;4882591;29;20056;-79
2022/07/01 13:20:07;;;;;;;4.28;0.40;;;21.80;99.30;;;;;;4882873;29;20048;-80
2022/07/01 13:22:33;;;;;;;4.97;0.63;;;21.90;99.90;;;;;;4883298;29;20048;-80
2022/07/01 13:25:00;;;;;;;3.65;0.60;;;21.90;99.90;;;;;;4868810;29;20053;-80
2022/07/01 13:27:25;;;;;;;3.15;0.60;;;21.90;99.30;;;;;;4868027;29;20130;-80
2022/07/01 13:29:51;;;;;;;4.22;0.80;;;21.90;99.00;;;;;;4885556;29;20040;-79
2022/07/01 13:32:17;;;;;;;3.30;0.60;;;21.80;99.60;;;;;;4869546;29;20131;-79
2022/07/01 13:34:43;;;;;;;4.38;0.60;;;21.80;99.30;;;;;;4885877;29;20055;-79
2022/07/01 13:37:09;;;;;;;3.42;0.65;;;21.90;99.40;;;;;;4867479;29;20053;-80
2022/07/01 13:39:35;;;;;;;4.55;0.52;;;22.00;99.70;;;;;;4869349;29;20055;-79
2022/07/01 13:42:01;;;;;;;3.10;0.50;;;22.10;98.90;;;;;;4867442;29;20055;-79
2022/07/01 13:44:26;;;;;;;6.05;0.70;;;22.40;99.40;;;;;;4894225;29;20067;-79
2022/07/01 13:46:52;;;;;;;2.08;0.35;;;22.60;98.80;;;;;;4891511;29;20058;-79
2022/07/01 13:49:18;;;;;;;5.93;0.80;;;22.70;99.50;;;;;;4885160;29;20540;-79
2022/07/01 13:51:44;;;;;;;3.72;0.65;;;22.80;98.90;;;;;;4885187;29;20662;-79
2022/07/01 13:54:10;;;;;;;4.35;0.60;;;22.90;98.00;;;;;;4868300;29;20661;-80
2022/07/01 13:56:36;;;;;;;4.15;0.60;;;22.90;97.60;;;;;;4885286;29;20108;-80
2022/07/01 13:59:02;;;;;;;4.68;0.90;;;22.80;97.80;;;;;;4868887;29;20152;-82
2022/07/01 14:01:28;;;;;;;4.35;0.63;;;22.60;97.40;;;;;;4884694;29;20044;-81
2022/07/01 14:03:54;;;;;;;3.33;0.60;;;22.50;98.50;;;;;;4885729;29;20175;-80
2022/07/01 14:06:20;;;;;;;5.97;0.80;;;22.40;99.40;;;;;;4867338;29;20073;-81
2022/07/01 14:08:46;;;;;;;2.53;0.60;;;22.30;99.30;;;;;;4885000;29;20060;-81
2022/07/01 14:11:12;;;;;;;3.25;0.88;;;22.20;99.80;;;;;;4884208;29;20152;-81
2022/07/01 14:13:40;;;;;;;4.00;0.70;;;22.20;99.20;;;;;;4868399;29;20108;-80
2022/07/01 14:16:06;;;;;;;3.17;0.70;;;22.10;98.50;;;;;;4883799;29;20061;-84
2022/07/01 14:18:33;;;;;;;3.42;0.80;;;22.10;98.30;;;;;;4883766;29;20598;-81
2022/07/01 14:21:00;;;;;;;4.78;0.90;;;22.10;98.40;;;;;;4868490;29;20124;-82
2022/07/01 14:23:26;;;;;;;7.28;0.90;;;22.20;98.60;;;;;;4887608;29;20057;-83
2022/07/01 14:25:52;;;;;;;3.97;0.77;;;22.20;98.30;;;;;;4874045;29;20049;-81
2022/07/01 14:28:18;;;;;;;6.10;0.90;;;22.20;97.50;;;;;;4863864;29;20382;-82
2022/07/01 14:30:44;;;;;;;3.45;0.80;;;22.30;98.40;;;;;;4880486;29;20087;-82
2022/07/01 14:33:10;;;;;;;3.67;1.00;;;22.20;98.40;;;;;;4849071;29;20148;-84
2022/07/01 14:35:35;;;;;;;3.05;0.60;;;22.20;98.10;;;;;;4878479;29;20055;-83
2022/07/01 14:38:01;;;;;;;4.07;0.90;;;22.20;97.60;;;;;;4884264;29;20076;-77
2022/07/01 14:40:27;;;;;;;5.18;1.23;;;22.30;97.40;;;;;;4884982;29;20087;-81